Time;durP1;ratioP1;P1;durP2;ratioP2;P2;SDS_P1;SDS_P2;PMS_P1;PMS_P2;Temp;Humidity;BMP_temperature;BMP_pressure;BME280_temperature;BME280_humidity;BME280_pressure;Samples;Min_cycle;Max_cycle;Signal;HPM_P1;HPM_P2
2021/10/02 00:33:31;;;;;;;32.42;21.82;;;;;;;7.61;60.76;100836.34;1727846;82;21090;-39
2021/10/02 00:34:55;;;;;;;34.00;22.15;;;;;;;7.67;60.73;100829.73;1772804;80;21007;-38
2021/10/02 00:45:23;;;;;;;34.78;24.32;;;;;;;7.78;60.44;100824.36;1773426;80;21128;-39
2021/10/02 00:47:55;;;;;;;39.38;25.48;;;;;;;7.78;60.38;100825.16;1770880;80;21072;-39
2021/10/02 00:50:22;;;;;;;38.48;23.22;;;;;;;7.79;60.39;100826.73;1722902;82;21543;-39
2021/10/02 00:52:49;;;;;;;36.17;23.38;;;;;;;7.79;60.47;100830.78;1761185;80;20965;-39
2021/10/02 00:55:15;;;;;;;40.33;23.87;;;;;;;7.78;60.45;100833.81;1781724;80;21040;-39
2021/10/02 00:57:44;;;;;;;35.88;22.98;;;;;;;7.75;60.49;100832.50;1762164;80;20978;-39
2021/10/02 01:00:12;;;;;;;33.35;24.05;;;;;;;7.73;60.53;100826.63;1774193;80;20965;-39
2021/10/02 01:03:30;;;;;;;35.25;23.62;;;;;;;7.72;60.55;100816.13;1769902;80;21530;-39
2021/10/02 01:06:22;;;;;;;34.00;22.40;;;;;;;7.68;60.60;100817.30;1767263;80;21117;-39
2021/10/02 01:09:09;;;;;;;34.50;22.05;;;;;;;7.62;60.57;100819.84;1773182;80;21028;-39
2021/10/02 01:11:55;;;;;;;40.52;22.50;;;;;;;7.58;60.59;100819.41;1763396;80;21575;-39
2021/10/02 01:14:55;;;;;;;37.00;22.32;;;;;;;7.54;60.71;100821.13;1770432;80;20946;-39
2021/10/02 01:17:52;;;;;;;32.15;21.23;;;;;;;7.51;60.82;100820.36;1747853;82;22120;-39
2021/10/02 01:20:46;;;;;;;36.10;22.13;;;;;;;7.47;60.89;100815.33;1749679;80;21049;-39
2021/10/02 01:23:39;;;;;;;35.92;22.37;;;;;;;7.42;61.04;100815.69;1749616;80;21034;-39
2021/10/02 01:26:26;;;;;;;34.48;21.68;;;;;;;7.38;61.15;100812.01;1770856;80;21795;-39
2021/10/02 01:28:56;;;;;;;30.00;19.98;;;;;;;7.36;61.22;100814.74;1721296;82;20980;-39
2021/10/02 01:31:37;;;;;;;30.72;18.73;;;;;;;7.39;61.25;100812.81;1767558;80;20972;-39
2021/10/02 01:34:16;;;;;;;30.35;19.25;;;;;;;7.46;61.19;100804.28;1765294;80;21271;-39
2021/10/02 01:47:53;;;;;;;27.87;18.57;;;;;;;7.61;60.75;100809.34;1746028;79;21069;-39
2021/10/02 01:50:33;;;;;;;27.95;17.87;;;;;;;7.62;60.73;100808.25;1773268;80;21061;-39
2021/10/02 01:53:02;;;;;;;32.03;19.98;;;;;;;7.64;60.72;100815.51;1770025;80;21962;-39
2021/10/02 01:55:30;;;;;;;30.97;20.23;;;;;;;7.64;60.73;100809.56;1742793;80;21048;-38
2021/10/02 01:58:00;;;;;;;30.08;19.12;;;;;;;7.64;60.76;100810.11;1728691;82;21524;-39
2021/10/02 02:00:27;;;;;;;31.68;20.12;;;;;;;7.63;60.68;100807.95;1769412;80;21119;-39
2021/10/02 02:02:56;;;;;;;30.37;19.95;;;;;;;7.63;60.69;100813.36;1750961;80;21068;-39
2021/10/02 02:05:25;;;;;;;27.02;18.52;;;;;;;7.62;60.67;100813.65;1766052;80;21152;-39
2021/10/02 02:07:57;;;;;;;25.97;18.75;;;;;;;7.60;60.65;100815.88;1695159;83;21678;-39
2021/10/02 02:10:23;;;;;;;28.27;19.30;;;;;;;7.57;60.71;100813.22;1676608;84;21010;-39
2021/10/02 02:12:50;;;;;;;32.83;20.52;;;;;;;7.55;60.88;100814.63;1765991;80;21519;-39
2021/10/02 02:15:18;;;;;;;28.32;19.62;;;;;;;7.53;61.04;100810.88;1742554;82;21088;-39
2021/10/02 02:17:49;;;;;;;29.60;19.27;;;;;;;7.51;61.20;100813.62;1740848;82;21943;-39
2021/10/02 02:20:25;;;;;;;28.05;17.50;;;;;;;7.49;61.32;100814.48;1740721;80;21550;-39
2021/10/02 02:22:52;;;;;;;29.15;18.07;;;;;;;7.50;61.38;100817.44;1754358;80;21096;-39
2021/10/02 02:25:18;;;;;;;26.55;17.67;;;;;;;7.55;61.42;100814.63;1717755;81;21026;-39
2021/10/02 02:27:45;;;;;;;34.13;19.10;;;;;;;7.63;61.35;100814.70;1761909;80;21068;-39
2021/10/02 02:30:11;;;;;;;28.05;18.02;;;;;;;7.67;61.26;100818.94;1772780;80;21954;-39
2021/10/02 02:32:40;;;;;;;29.75;17.82;;;;;;;7.71;61.20;100815.88;1752392;80;21008;-39
2021/10/02 02:35:08;;;;;;;27.00;18.48;;;;;;;7.73;61.15;100815.03;1742446;82;20972;-38
2021/10/02 02:37:34;;;;;;;30.90;19.98;;;;;;;7.77;61.06;100813.31;1758172;80;21614;-39
2021/10/02 02:40:03;;;;;;;30.32;19.12;;;;;;;7.77;61.00;100807.91;1764441;80;21092;-39
2021/10/02 02:42:29;;;;;;;30.65;18.15;;;;;;;7.77;60.97;100810.61;1745119;80;21124;-39
2021/10/02 02:44:56;;;;;;;34.00;18.92;;;;;;;7.75;60.90;100812.80;1743304;80;20961;-39
2021/10/02 02:48:13;;;;;;;31.27;19.40;;;;;;;7.75;60.94;100802.81;1829736;77;22589;-37
2021/10/02 02:50:57;;;;;;;31.48;19.10;;;;;;;7.69;61.01;100808.64;1789584;78;20982;-37
2021/10/02 02:53:38;;;;;;;26.97;18.80;;;;;;;7.65;61.21;100807.66;1806535;78;21154;-38
2021/10/02 02:56:12;;;;;;;29.12;19.73;;;;;;;7.62;61.40;100804.20;1746090;81;21468;-38
2021/10/02 02:58:39;;;;;;;26.50;18.00;;;;;;;7.58;61.46;100799.97;1698885;82;20934;-37
2021/10/02 03:01:05;;;;;;;29.90;18.12;;;;;;;7.56;61.57;100801.36;1737132;81;20949;-38
2021/10/02 03:03:35;;;;;;;31.37;19.65;;;;;;;7.52;61.61;100797.13;1726981;80;20983;-38
2021/10/02 03:06:11;;;;;;;26.12;17.73;;;;;;;7.50;61.68;100795.85;1739642;82;21840;-38
2021/10/02 03:08:40;;;;;;;27.07;18.67;;;;;;;7.51;61.73;100796.87;1743585;82;20986;-38
2021/10/02 03:11:07;;;;;;;25.77;18.10;;;;;;;7.57;61.72;100792.17;1739114;80;20955;-38
2021/10/02 03:13:37;;;;;;;27.77;18.70;;;;;;;7.64;61.61;100792.56;1754342;80;20968;-38
2021/10/02 03:16:08;;;;;;;39.38;20.27;;;;;;;7.67;61.64;100789.25;1741822;82;21028;-38
2021/10/02 03:18:43;;;;;;;30.45;19.75;;;;;;;7.70;61.60;100785.38;1743887;81;21018;-38
2021/10/02 03:21:10;;;;;;;28.98;19.05;;;;;;;7.72;61.52;100789.13;1712847;82;21093;-38
2021/10/02 03:23:37;;;;;;;30.32;19.27;;;;;;;7.71;61.44;100786.17;1746445;81;21511;-38
2021/10/02 03:26:04;;;;;;;34.30;19.55;;;;;;;7.70;61.53;100784.02;1754493;81;21075;-37
2021/10/02 03:28:32;;;;;;;32.05;18.57;;;;;;;7.68;61.56;100782.75;1753669;81;20934;-38
2021/10/02 03:30:59;;;;;;;29.20;17.82;;;;;;;7.66;61.63;100783.59;1753060;81;21096;-38
2021/10/02 03:33:26;;;;;;;30.77;19.35;;;;;;;7.64;61.75;100783.12;1730943;81;21512;-38
2021/10/02 03:35:53;;;;;;;28.05;18.40;;;;;;;7.62;61.86;100784.77;1762882;81;21922;-38
2021/10/02 03:38:22;;;;;;;27.98;18.45;;;;;;;7.59;61.91;100779.98;1763180;81;21525;-37
2021/10/02 03:40:48;;;;;;;31.97;19.75;;;;;;;7.58;61.89;100780.28;1724977;82;21598;-38
2021/10/02 03:43:15;;;;;;;28.50;19.17;;;;;;;7.54;61.93;100772.55;1732144;82;21140;-37
2021/10/02 03:45:42;;;;;;;29.75;18.80;;;;;;;7.50;62.05;100775.61;1737460;81;20973;-38
2021/10/02 03:48:08;;;;;;;27.62;17.65;;;;;;;7.52;62.01;100776.09;1743989;81;21614;-38
2021/10/02 03:50:37;;;;;;;25.80;17.60;;;;;;;7.54;62.01;100776.05;1782104;80;21091;-38
2021/10/02 03:53:04;;;;;;;29.72;18.77;;;;;;;7.60;62.00;100776.73;1812040;79;21005;-38
2021/10/02 03:55:31;;;;;;;28.65;20.25;;;;;;;7.63;62.06;100781.52;1813684;79;21130;-38
2021/10/02 03:57:57;;;;;;;37.00;21.20;;;;;;;7.63;62.06;100782.86;1815277;78;21755;-38
2021/10/02 04:00:24;;;;;;;32.20;20.77;;;;;;;7.63;62.06;100778.27;1812847;79;20957;-38
2021/10/02 04:02:51;;;;;;;28.20;19.55;;;;;;;7.65;62.04;100785.49;1811975;79;20956;-38
2021/10/02 04:05:18;;;;;;;28.80;19.62;;;;;;;7.64;62.11;100777.72;1804479;79;22235;-37
2021/10/02 04:07:44;;;;;;;31.70;18.10;;;;;;;7.64;62.20;100780.42;1804922;79;21504;-38
2021/10/02 04:10:12;;;;;;;26.97;18.10;;;;;;;7.62;62.14;100784.77;1796590;79;21320;-37
2021/10/02 04:12:40;;;;;;;26.67;19.10;;;;;;;7.59;62.09;100777.28;1815488;78;21013;-38
2021/10/02 04:15:08;;;;;;;26.50;18.42;;;;;;;7.56;62.08;100785.17;1820883;78;20999;-38
2021/10/02 04:17:36;;;;;;;29.37;17.85;;;;;;;7.53;62.09;100787.14;1809155;79;20957;-38
2021/10/02 04:20:04;;;;;;;24.25;17.98;;;;;;;7.49;62.26;100782.11;1783094;80;21121;-38
2021/10/02 04:22:33;;;;;;;27.20;17.67;;;;;;;7.43;62.35;100790.31;1807113;78;26872;-38
2021/10/02 04:24:59;;;;;;;24.87;17.48;;;;;;;7.45;62.47;100789.22;1806819;79;21696;-37
2021/10/02 04:27:26;;;;;;;25.00;17.42;;;;;;;7.47;62.45;100791.05;1803024;78;21091;-38
2021/10/02 04:29:53;;;;;;;26.50;17.00;;;;;;;7.50;62.51;100794.50;1815396;78;21023;-38
2021/10/02 04:32:20;;;;;;;26.62;18.10;;;;;;;7.49;62.57;100792.91;1812884;78;21752;-38
2021/10/02 04:34:49;;;;;;;27.17;17.50;;;;;;;7.50;62.63;100790.45;1814085;78;21538;-38
2021/10/02 04:37:15;;;;;;;34.78;23.02;;;;;;;7.49;62.55;100788.30;1804566;79;21014;-38
2021/10/02 04:39:42;;;;;;;30.43;20.97;;;;;;;7.51;62.48;100788.78;1815063;79;21017;-38
2021/10/02 04:42:09;;;;;;;28.10;18.00;;;;;;;7.52;62.40;100790.94;1804681;79;21024;-38
2021/10/02 04:44:37;;;;;;;31.23;19.07;;;;;;;7.54;62.34;100790.09;1811499;79;20889;-38
2021/10/02 04:47:03;;;;;;;37.75;21.75;;;;;;;7.54;62.25;100787.39;1806942;78;21041;-38
2021/10/02 04:49:30;;;;;;;33.55;21.35;;;;;;;7.53;62.58;100785.79;1792870;79;21520;-38
2021/10/02 04:51:57;;;;;;;39.45;19.32;;;;;;;7.52;62.83;100779.59;1758801;80;20973;-38
2021/10/02 04:54:24;;;;;;;25.88;16.40;;;;;;;7.57;62.96;100782.73;1801798;79;21005;-38
2021/10/02 04:56:50;;;;;;;23.73;15.72;;;;;;;7.66;62.98;100791.69;1790055;79;21120;-38
2021/10/02 04:59:17;;;;;;;22.58;16.57;;;;;;;7.76;63.00;100792.81;1785853;78;20986;-38
2021/10/02 05:01:43;;;;;;;24.10;16.77;;;;;;;7.81;63.15;100793.50;1789137;79;21605;-38
2021/10/02 05:04:10;;;;;;;25.30;16.80;;;;;;;7.88;63.23;100793.63;1801663;79;21002;-38
2021/10/02 05:06:36;;;;;;;27.75;17.57;;;;;;;7.94;63.27;100795.11;1791287;79;21075;-38
2021/10/02 05:09:04;;;;;;;26.82;16.87;;;;;;;7.99;63.34;100798.46;1813541;79;21877;-37
2021/10/02 05:11:31;;;;;;;24.25;17.00;;;;;;;8.05;63.51;100799.14;1812696;79;20968;-38
2021/10/02 05:13:58;;;;;;;24.20;16.45;;;;;;;8.11;63.64;100798.72;1799227;79;21064;-38
2021/10/02 05:16:25;;;;;;;26.15;16.90;;;;;;;8.17;63.84;100798.84;1779582;79;21527;-38
2021/10/02 05:18:52;;;;;;;28.15;16.35;;;;;;;8.23;63.87;100796.80;1785467;79;21055;-38
2021/10/02 05:21:19;;;;;;;23.52;15.83;;;;;;;8.33;63.88;100802.55;1792264;79;21445;-38
2021/10/02 05:23:46;;;;;;;24.85;15.98;;;;;;;8.46;63.80;100797.06;1811297;79;20968;-37
2021/10/02 05:26:13;;;;;;;29.55;16.82;;;;;;;8.61;63.77;100798.56;1793626;79;20956;-38
2021/10/02 05:28:39;;;;;;;24.77;16.77;;;;;;;8.71;63.80;100799.66;1789204;79;21036;-38
2021/10/02 05:31:06;;;;;;;25.60;17.10;;;;;;;8.49;63.75;100746.43;1804075;78;21324;-38
2021/10/02 05:33:32;;;;;;;27.65;18.62;;;;;;;8.91;63.65;100795.02;1789514;79;21100;-38
2021/10/02 05:35:59;;;;;;;27.30;17.82;;;;;;;9.02;63.53;100787.41;1795516;79;21016;-38
2021/10/02 05:38:26;;;;;;;27.15;16.62;;;;;;;9.12;63.47;100795.24;1794096;79;21032;-38
2021/10/02 05:40:53;;;;;;;24.55;16.90;;;;;;;9.21;63.33;100796.05;1776113;79;20952;-38
2021/10/02 05:43:19;;;;;;;25.80;17.15;;;;;;;9.29;63.25;100798.56;1784812;79;21072;-38
2021/10/02 05:45:46;;;;;;;21.60;16.20;;;;;;;9.36;63.13;100792.11;1788783;79;21123;-38
2021/10/02 05:48:13;;;;;;;24.43;16.90;;;;;;;9.42;62.98;100793.00;1792970;79;21644;-38
2021/10/02 05:50:40;;;;;;;24.87;15.90;;;;;;;9.47;62.91;100795.56;1786863;79;21033;-38
2021/10/02 05:53:07;;;;;;;25.00;15.58;;;;;;;9.58;62.90;100798.77;1777652;79;20913;-38
2021/10/02 05:55:34;;;;;;;21.27;16.57;;;;;;;9.69;62.88;100802.73;1795433;79;20941;-38
2021/10/02 05:58:01;;;;;;;23.30;15.65;;;;;;;9.82;62.78;100807.22;1801410;79;21245;-38
2021/10/02 06:00:28;;;;;;;24.87;16.23;;;;;;;9.92;62.85;100812.28;1784581;79;21578;-38
2021/10/02 06:02:56;;;;;;;21.15;15.78;;;;;;;10.04;62.83;100806.23;1791421;79;20954;-38
2021/10/02 06:05:27;;;;;;;25.48;15.68;;;;;;;10.14;62.80;100810.52;1798817;79;21038;-38
2021/10/02 06:07:55;;;;;;;23.27;15.60;;;;;;;10.25;62.60;100810.47;1796971;79;21324;-38
2021/10/02 06:10:27;;;;;;;22.93;16.77;;;;;;;10.33;62.38;100819.13;1788691;79;21782;-38
2021/10/02 06:12:54;;;;;;;25.08;16.35;;;;;;;10.40;62.29;100816.19;1769471;79;21060;-40
2021/10/02 06:15:25;;;;;;;25.37;16.65;;;;;;;10.48;62.06;100818.62;1792974;79;20974;-39
2021/10/02 06:17:54;;;;;;;25.72;16.90;;;;;;;10.56;62.14;100819.15;1792180;79;21069;-39
2021/10/02 06:20:22;;;;;;;21.20;14.93;;;;;;;10.62;62.07;100813.80;1796424;79;20988;-39
2021/10/02 06:22:48;;;;;;;25.15;14.60;;;;;;;10.70;61.81;100814.88;1804372;79;21163;-37
2021/10/02 06:25:15;;;;;;;19.87;14.15;;;;;;;10.77;61.57;100816.54;1807117;79;20957;-37
2021/10/02 06:27:44;;;;;;;28.73;15.98;;;;;;;10.84;61.36;100818.97;1801717;79;20992;-37
2021/10/02 06:30:11;;;;;;;25.80;15.63;;;;;;;10.92;61.17;100819.27;1804171;79;21013;-37
2021/10/02 06:32:39;;;;;;;22.75;14.30;;;;;;;11.00;61.29;100819.78;1788192;79;21048;-37
2021/10/02 06:35:08;;;;;;;24.95;16.87;;;;;;;11.07;60.88;100820.88;1806848;79;21941;-37
2021/10/02 06:37:35;;;;;;;22.33;14.60;;;;;;;11.16;60.76;100822.19;1804750;79;20887;-37
2021/10/02 06:40:05;;;;;;;21.07;14.00;;;;;;;11.28;60.50;100819.55;1804008;79;21009;-37
2021/10/02 06:42:32;;;;;;;21.35;14.38;;;;;;;11.41;59.84;100815.02;1806652;78;21000;-38
2021/10/02 06:44:59;;;;;;;20.15;14.68;;;;;;;11.55;59.41;100812.29;1803950;79;21515;-37
2021/10/02 06:47:26;;;;;;;24.05;14.75;;;;;;;11.68;59.07;100817.22;1795494;79;21141;-37
2021/10/02 06:49:57;;;;;;;19.95;15.13;;;;;;;11.80;58.88;100812.46;1802685;79;21025;-38
2021/10/02 06:52:22;;;;;;;21.47;14.50;;;;;;;11.90;59.04;100815.58;1806926;79;21067;-37
2021/10/02 06:54:48;;;;;;;23.30;14.20;;;;;;;12.03;58.74;100820.48;1808293;79;20968;-38
2021/10/02 06:57:15;;;;;;;23.55;15.08;;;;;;;12.14;58.39;100814.88;1790841;78;21026;-38
2021/10/02 06:59:42;;;;;;;19.07;13.68;;;;;;;12.23;57.90;100818.31;1794582;79;21081;-38
2021/10/02 07:02:09;;;;;;;24.07;14.80;;;;;;;12.34;57.56;100823.56;1783608;78;21519;-38
2021/10/02 07:04:42;;;;;;;29.02;15.28;;;;;;;12.45;57.18;100825.27;1789715;79;21487;-38
2021/10/02 07:07:09;;;;;;;22.60;14.98;;;;;;;12.54;57.02;100821.33;1803516;79;20972;-38
2021/10/02 07:09:35;;;;;;;27.75;16.12;;;;;;;12.67;56.84;100824.89;1790549;79;21040;-38
2021/10/02 07:12:03;;;;;;;23.80;15.38;;;;;;;12.78;56.76;100826.61;1780685;79;21148;-38
2021/10/02 07:14:30;;;;;;;23.20;13.78;;;;;;;12.89;56.69;100824.45;1776484;79;21062;-38
2021/10/02 07:17:01;;;;;;;24.50;14.53;;;;;;;13.02;56.03;100818.47;1791426;79;21021;-38
2021/10/02 07:19:29;;;;;;;24.20;14.60;;;;;;;13.15;55.60;100818.71;1795052;79;21009;-38
2021/10/02 07:21:57;;;;;;;22.82;13.80;;;;;;;13.28;55.32;100816.77;1795474;78;20942;-38
2021/10/02 07:24:24;;;;;;;22.13;14.18;;;;;;;13.38;54.98;100821.75;1810193;79;21057;-38
2021/10/02 07:26:51;;;;;;;19.45;13.72;;;;;;;13.46;54.42;100818.89;1812725;79;21578;-38
2021/10/02 07:29:18;;;;;;;21.05;14.35;;;;;;;13.56;54.05;100821.72;1795570;79;21011;-38
2021/10/02 07:31:48;;;;;;;24.60;14.40;;;;;;;13.64;53.73;100811.27;1790938;80;21511;-38
2021/10/02 07:34:13;;;;;;;17.57;12.35;;;;;;;13.74;52.90;100814.09;1790792;79;21018;-38
2021/10/02 07:36:42;;;;;;;33.88;14.47;;;;;;;13.84;52.53;100814.97;1778367;79;21560;-38
2021/10/02 07:39:08;;;;;;;52.98;16.65;;;;;;;13.96;52.16;100814.91;1803924;79;21653;-38
2021/10/02 07:41:41;;;;;;;20.95;14.28;;;;;;;14.08;51.78;100813.52;1801650;78;20925;-38
2021/10/02 07:44:13;;;;;;;18.02;12.18;;;;;;;14.19;51.77;100811.86;1805864;79;20954;-38
2021/10/02 07:46:50;;;;;;;15.98;10.63;;;;;;;14.29;51.16;100813.28;1803752;79;21001;-38
2021/10/02 07:49:18;;;;;;;20.17;10.88;;;;;;;14.41;50.01;100807.02;1738703;81;21119;-38
2021/10/02 07:51:46;;;;;;;18.15;10.72;;;;;;;14.53;49.96;100813.19;1740971;81;21093;-38
2021/10/02 07:54:15;;;;;;;20.82;11.65;;;;;;;14.65;49.40;100809.59;1747686;81;20954;-38
2021/10/02 07:56:42;;;;;;;15.88;11.38;;;;;;;14.75;48.79;100806.34;1739658;81;21024;-38
2021/10/02 07:59:11;;;;;;;20.30;11.48;;;;;;;14.87;48.44;100811.70;1724587;81;21098;-38
2021/10/02 08:01:37;;;;;;;16.10;10.70;;;;;;;14.98;48.19;100807.30;1757140;81;21085;-38
2021/10/02 08:04:05;;;;;;;16.32;10.15;;;;;;;15.09;48.43;100805.63;1751055;81;21611;-38
2021/10/02 08:06:32;;;;;;;17.87;10.10;;;;;;;15.19;48.04;100803.72;1763602;80;20981;-38
2021/10/02 08:09:00;;;;;;;16.93;11.20;;;;;;;15.29;47.66;100801.59;1706469;82;21024;-38
2021/10/02 08:11:29;;;;;;;14.45;10.43;;;;;;;15.40;47.68;100797.13;1705752;82;21463;-38
2021/10/02 08:13:56;;;;;;;16.15;11.25;;;;;;;15.50;47.40;100794.64;1702851;82;21154;-38
2021/10/02 08:16:30;;;;;;;14.83;9.80;;;;;;;15.61;47.14;100790.80;1740547;82;21005;-38
2021/10/02 08:19:00;;;;;;;13.28;9.08;;;;;;;15.73;46.71;100794.79;1731313;82;21578;-38
2021/10/02 08:21:29;;;;;;;14.85;10.23;;;;;;;15.79;45.84;100792.53;1697992;82;21038;-38
2021/10/02 08:23:56;;;;;;;14.85;10.03;;;;;;;15.81;46.26;100786.94;1729506;82;21030;-38
2021/10/02 08:26:22;;;;;;;17.12;10.43;;;;;;;15.91;46.84;100789.09;1738151;80;21762;-38
2021/10/02 08:28:52;;;;;;;27.22;10.85;;;;;;;15.77;45.34;100744.27;1735975;81;20945;-38
2021/10/02 08:31:22;;;;;;;16.50;9.58;;;;;;;16.17;44.70;100791.75;1710799;82;21051;-38
2021/10/02 08:33:51;;;;;;;15.83;9.95;;;;;;;16.26;45.28;100789.00;1697031;83;21558;-38
2021/10/02 08:36:18;;;;;;;15.40;10.82;;;;;;;16.37;44.50;100789.17;1764902;79;21025;-38
2021/10/02 08:38:46;;;;;;;23.32;11.10;;;;;;;16.48;43.86;100788.80;1766863;79;21041;-38
2021/10/02 08:41:14;;;;;;;13.22;8.23;;;;;;;16.61;43.78;100791.59;1772509;80;21066;-38
2021/10/02 08:43:41;;;;;;;11.53;8.18;;;;;;;16.72;41.94;100776.71;1772856;81;21056;-38
2021/10/02 08:46:09;;;;;;;15.23;7.85;;;;;;;16.78;42.44;100784.84;1772705;81;21594;-38
2021/10/02 08:48:35;;;;;;;12.45;7.75;;;;;;;16.87;42.22;100786.75;1772150;80;21560;-38
2021/10/02 08:51:05;;;;;;;14.50;7.58;;;;;;;16.99;41.29;100785.77;1787040;79;21089;-38
2021/10/02 08:53:33;;;;;;;8.43;6.22;;;;;;;17.11;41.26;100777.33;1768721;81;20910;-38
2021/10/02 08:56:02;;;;;;;9.48;6.22;;;;;;;17.23;40.38;100771.66;1772644;81;21000;-38
2021/10/02 08:58:30;;;;;;;10.15;6.28;;;;;;;17.32;40.09;100770.80;1772684;81;21019;-38
2021/10/02 09:01:00;;;;;;;13.28;6.30;;;;;;;17.47;39.47;100769.84;1772019;79;20997;-38
2021/10/02 09:03:27;;;;;;;8.30;6.00;;;;;;;17.61;38.88;100763.20;1772630;80;21122;-38
2021/10/02 09:05:54;;;;;;;7.72;5.17;;;;;;;17.70;38.86;100760.95;1772644;80;20972;-38
2021/10/02 09:08:21;;;;;;;9.10;5.37;;;;;;;17.83;38.13;100760.70;1759984;80;21571;-38
2021/10/02 09:10:49;;;;;;;8.23;6.20;;;;;;;17.87;36.82;100757.41;1770505;81;21099;-38
2021/10/02 09:13:17;;;;;;;9.68;5.95;;;;;;;17.91;38.47;100763.14;1771829;81;21068;-38
2021/10/02 09:15:44;;;;;;;10.23;6.30;;;;;;;18.03;38.55;100767.59;1757489;79;21177;-38
2021/10/02 09:18:12;;;;;;;7.87;5.72;;;;;;;18.14;38.50;100756.95;1765750;80;21594;-39
2021/10/02 09:20:40;;;;;;;9.85;5.83;;;;;;;18.31;38.60;100766.52;1792756;79;21582;-38
2021/10/02 09:23:08;;;;;;;12.75;6.67;;;;;;;18.48;37.52;100756.88;1754997;81;21634;-38
2021/10/02 09:25:40;;;;;;;11.10;6.25;;;;;;;18.60;37.20;100750.54;1754121;81;21092;-38
2021/10/02 09:28:13;;;;;;;10.65;6.60;;;;;;;18.73;36.51;100751.05;1737535;80;20950;-39
2021/10/02 09:30:44;;;;;;;11.70;6.20;;;;;;;18.78;36.24;100744.41;1753215;80;20989;-38
2021/10/02 09:33:22;;;;;;;6.97;5.65;;;;;;;18.80;36.52;100751.67;1762241;80;21561;-38
2021/10/02 09:35:50;;;;;;;;;;;;;;;18.88;36.08;100751.95;1769444;80;21054;-38
2021/10/02 09:38:20;;;;;;;9.25;5.40;;;;;;;18.91;36.07;100740.98;1764894;79;20228;-38
2021/10/02 09:40:58;;;;;;;8.90;5.58;;;;;;;18.89;35.94;100747.42;1772740;79;22059;-39
2021/10/02 09:43:26;;;;;;;7.92;5.47;;;;;;;18.96;35.19;100750.82;1759211;80;21048;-38
2021/10/02 09:45:53;;;;;;;7.00;5.90;;;;;;;19.01;34.62;100738.09;1776288;79;21017;-38
2021/10/02 09:48:29;;;;;;;11.53;6.00;;;;;;;19.07;34.64;100744.81;1762705;79;21064;-39
2021/10/02 09:51:05;;;;;;;9.08;6.08;;;;;;;19.15;34.52;100742.89;1768470;80;20989;-39
2021/10/02 09:53:41;;;;;;;7.72;5.45;;;;;;;19.20;34.68;100735.08;1772639;79;21139;-38
2021/10/02 09:56:12;;;;;;;9.23;5.65;;;;;;;19.31;35.00;100734.55;1778580;79;20914;-39
2021/10/02 09:58:41;;;;;;;6.75;5.47;;;;;;;19.41;34.40;100733.03;1772753;81;20902;-39
2021/10/02 10:01:21;;;;;;;6.60;5.35;;;;;;;19.52;34.00;100733.88;1765396;80;21041;-39
2021/10/02 10:03:48;;;;;;;8.25;5.05;;;;;;;19.63;33.55;100737.47;1776113;79;21083;-39
2021/10/02 10:06:19;;;;;;;11.33;5.35;;;;;;;19.70;33.21;100724.34;1770521;80;21105;-39
2021/10/02 10:09:08;;;;;;;10.08;5.80;;;;;;;19.70;33.20;100711.95;1767222;80;21796;-39
2021/10/02 10:11:55;;;;;;;9.48;5.62;;;;;;;19.74;33.50;100717.67;1767851;79;20968;-39
2021/10/02 10:14:24;;;;;;;8.73;5.78;;;;;;;19.82;33.43;100716.50;1775226;80;21089;-39
2021/10/02 10:16:54;;;;;;;9.83;5.08;;;;;;;19.91;33.55;100708.66;1773085;80;21547;-39
2021/10/02 10:19:26;;;;;;;9.88;6.10;;;;;;;20.03;33.63;100717.16;1781618;79;21791;-39
2021/10/02 10:22:18;;;;;;;10.80;5.35;;;;;;;20.07;32.52;100706.94;1762982;79;21488;-39
2021/10/02 10:24:57;;;;;;;10.38;6.12;;;;;;;20.04;33.99;100704.97;1772669;79;20929;-39
2021/10/02 10:27:43;;;;;;;7.85;5.95;;;;;;;20.13;33.91;100708.13;1770615;79;21337;-38
2021/10/02 10:30:18;;;;;;;7.85;5.42;;;;;;;19.96;32.93;100649.69;1770721;80;21080;-38
2021/10/02 10:33:10;;;;;;;10.50;5.42;;;;;;;20.31;33.28;100691.06;1769261;79;23707;-38
2021/10/02 10:35:42;;;;;;;9.00;5.50;;;;;;;20.44;33.14;100686.52;1767819;80;21599;-39
2021/10/02 10:38:12;;;;;;;9.63;6.30;;;;;;;20.58;32.96;100686.52;1772428;79;20973;-39
2021/10/02 10:40:40;;;;;;;6.87;5.55;;;;;;;20.70;32.57;100683.37;1767733;79;21439;-39
2021/10/02 10:43:06;;;;;;;14.60;5.87;;;;;;;20.88;32.22;100691.01;1768277;80;21061;-39
2021/10/02 10:45:36;;;;;;;8.10;5.22;;;;;;;21.08;32.26;100674.81;1751164;81;21134;-39
2021/10/02 10:48:05;;;;;;;;;;;;;;;21.26;32.47;100670.05;1760616;79;21081;-39
2021/10/02 10:50:42;;;;;;;8.45;5.37;;;;;;;21.34;31.86;100658.41;1766955;80;20579;-39
2021/10/02 10:53:10;;;;;;;8.60;5.70;;;;;;;21.41;32.26;100662.50;1705671;83;21052;-40
2021/10/02 10:55:55;;;;;;;8.18;5.08;;;;;;;21.52;31.82;100661.28;1761502;79;21036;-40
2021/10/02 10:58:28;;;;;;;7.45;5.30;;;;;;;21.68;31.48;100653.91;1769876;79;21147;-39
2021/10/02 11:00:56;;;;;;;9.10;5.03;;;;;;;21.82;31.53;100655.20;1766332;79;20963;-39
2021/10/02 11:03:48;;;;;;;8.50;5.15;;;;;;;21.93;30.86;100653.75;1795976;79;21048;-40
2021/10/02 11:06:19;;;;;;;7.20;5.53;;;;;;;21.96;31.04;100650.98;1803803;79;20964;-39
2021/10/02 11:09:07;;;;;;;6.65;5.20;;;;;;;22.01;31.45;100647.80;1781754;79;21023;-39
2021/10/02 11:11:52;;;;;;;7.45;5.00;;;;;;;22.07;30.96;100646.16;1779411;79;21530;-39
2021/10/02 11:14:27;;;;;;;5.85;4.92;;;;;;;22.15;30.87;100648.28;1779276;79;21012;-39
2021/10/02 11:17:03;;;;;;;6.50;4.78;;;;;;;22.16;30.73;100646.31;1747853;79;21035;-39
2021/10/02 11:19:43;;;;;;;7.50;5.20;;;;;;;22.20;31.18;100647.06;1715969;82;21484;-39
2021/10/02 11:23:07;;;;;;;9.90;5.33;;;;;;;22.25;30.94;100643.86;1712749;82;21332;-40
2021/10/02 11:25:31;;;;;;;10.00;5.75;;;;;;;22.32;31.10;100641.03;1779452;79;21205;-39
2021/10/02 11:28:26;;;;;;;5.92;4.78;;;;;;;22.51;30.94;100643.25;1779500;79;21022;-39
2021/10/02 11:30:55;;;;;;;7.30;5.20;;;;;;;22.75;30.21;100644.98;1775510;79;20960;-39
2021/10/02 11:33:37;;;;;;;5.40;4.72;;;;;;;22.95;29.97;100639.05;1781162;79;21041;-40
2021/10/02 11:36:35;;;;;;;5.25;4.35;;;;;;;23.09;29.69;100629.79;1780487;80;21034;-39
2021/10/02 11:39:23;;;;;;;8.40;4.45;;;;;;;23.21;30.01;100627.88;1781524;80;21504;-39
2021/10/02 11:41:57;;;;;;;7.25;4.08;;;;;;;23.17;28.34;100626.36;1783129;79;20921;-39
2021/10/02 11:44:39;;;;;;;11.12;7.62;;;;;;;22.99;28.74;100626.58;1777935;79;21178;-39
2021/10/02 11:47:39;;;;;;;15.72;9.48;;;;;;;22.99;29.18;100629.94;1781127;80;21121;-39
2021/10/02 11:50:24;;;;;;;20.32;13.22;;;;;;;23.19;28.74;100619.82;1772730;79;21169;-40
2021/10/02 11:53:00;;;;;;;9.40;6.80;;;;;;;23.50;28.48;100613.69;1790207;80;21128;-39
2021/10/02 11:55:45;;;;;;;5.72;4.47;;;;;;;23.80;27.73;100619.98;1781046;80;21519;-39
2021/10/02 11:58:13;;;;;;;9.88;6.42;;;;;;;24.05;27.77;100610.50;1768381;80;20946;-39
2021/10/02 12:00:53;;;;;;;7.37;4.85;;;;;;;24.34;27.05;100612.22;1772789;79;20978;-39
2021/10/02 12:03:28;;;;;;;7.05;4.58;;;;;;;24.58;26.88;100613.16;1773568;80;21065;-39
2021/10/02 12:05:57;;;;;;;7.40;4.12;;;;;;;24.89;26.27;100608.82;1772506;81;21078;-39
2021/10/02 12:08:24;;;;;;;9.28;4.20;;;;;;;25.16;26.09;100599.75;1772639;80;21077;-40
2021/10/02 12:11:11;;;;;;;6.55;4.70;;;;;;;25.33;25.34;100599.19;1787524;80;21069;-40
2021/10/02 12:13:51;;;;;;;7.15;4.50;;;;;;;25.47;25.48;100595.48;1791232;80;20946;-40
2021/10/02 12:16:29;;;;;;;8.93;4.35;;;;;;;25.71;25.48;100599.54;1791153;80;21533;-40
2021/10/02 12:19:12;;;;;;;6.20;3.90;;;;;;;25.85;24.91;100589.51;1779463;80;21720;-40
2021/10/02 12:21:46;;;;;;;6.58;4.10;;;;;;;25.94;24.74;100601.58;1740853;82;21012;-40
2021/10/02 12:24:17;;;;;;;6.53;4.10;;;;;;;26.11;24.80;100598.17;1742360;82;20992;-40
2021/10/02 12:27:06;;;;;;;8.25;4.90;;;;;;;26.36;24.16;100599.73;1742385;82;21028;-40